createdAt,value
2018-11-10T00:00:30.219Z,16.63
2018-11-10T00:02:58.400Z,16.40
2018-11-10T00:05:26.608Z,16.40
2018-11-10T00:07:54.847Z,15.93
2018-11-10T00:10:23.011Z,17.43
2018-11-10T00:12:51.158Z,15.43
2018-11-10T00:15:19.350Z,15.03
2018-11-10T00:17:47.562Z,16.20
2018-11-10T00:20:15.774Z,15.67
2018-11-10T00:22:43.940Z,15.23
2018-11-10T00:25:13.186Z,16.37
2018-11-10T00:27:42.137Z,15.90
2018-11-10T00:30:12.265Z,14.40
2018-11-10T00:32:41.659Z,14.20
2018-11-10T00:35:09.923Z,14.40
2018-11-10T00:37:38.103Z,14.37
2018-11-10T00:40:07.257Z,14.50
2018-11-10T00:42:35.599Z,15.63
2018-11-10T00:45:03.886Z,15.60
2018-11-10T00:47:32.179Z,15.47
2018-11-10T00:50:00.352Z,13.07
2018-11-10T00:52:28.516Z,16.43
2018-11-10T00:54:56.891Z,15.33
2018-11-10T00:57:25.241Z,13.87
2018-11-10T00:59:53.413Z,14.90
2018-11-10T01:02:21.672Z,15.97
2018-11-10T01:04:49.885Z,13.73
2018-11-10T01:07:18.105Z,14.90
2018-11-10T01:09:46.284Z,14.30
2018-11-10T01:12:14.458Z,14.40
2018-11-10T01:14:42.732Z,13.63
2018-11-10T01:17:10.912Z,13.63
2018-11-10T01:19:39.120Z,13.73
2018-11-10T01:22:07.548Z,13.57
2018-11-10T01:24:35.757Z,14.80
2018-11-10T01:27:03.988Z,14.27
2018-11-10T01:29:32.167Z,12.70
2018-11-10T01:32:00.357Z,14.30
2018-11-10T01:34:28.549Z,14.00
2018-11-10T01:36:56.789Z,15.85
2018-11-10T01:39:24.984Z,13.60
2018-11-10T01:41:53.940Z,14.00
2018-11-10T01:44:22.200Z,12.13
2018-11-10T01:46:50.164Z,12.23
2018-11-10T01:49:18.652Z,12.47
2018-11-10T01:51:46.981Z,14.00
2018-11-10T01:54:15.227Z,12.93
2018-11-10T01:56:43.385Z,11.77
2018-11-10T01:59:11.615Z,13.30
2018-11-10T02:01:39.906Z,13.90
2018-11-10T02:04:08.072Z,12.40
2018-11-10T02:06:36.331Z,12.00
2018-11-10T02:09:06.664Z,11.70
2018-11-10T02:11:34.970Z,11.60
2018-11-10T02:14:03.261Z,12.60
2018-11-10T02:16:31.406Z,11.50
2018-11-10T02:18:59.566Z,12.00
2018-11-10T02:21:27.811Z,10.23
2018-11-10T02:23:55.962Z,10.97
2018-11-10T02:26:24.167Z,10.00
2018-11-10T02:28:52.568Z,10.47
2018-11-10T02:31:20.807Z,10.00
2018-11-10T02:33:48.996Z,10.40
2018-11-10T02:36:17.212Z,11.50
2018-11-10T02:38:45.500Z,8.50
2018-11-10T02:41:13.650Z,10.57
2018-11-10T02:43:41.822Z,10.20
2018-11-10T02:46:10.141Z,10.07
2018-11-10T02:48:38.328Z,10.00
2018-11-10T02:51:06.590Z,9.30
2018-11-10T02:53:34.793Z,11.10
2018-11-10T02:56:03.097Z,12.37
2018-11-10T02:58:31.256Z,10.97
2018-11-10T03:00:59.428Z,9.80
2018-11-10T03:03:27.621Z,10.40
2018-11-10T03:05:55.817Z,10.33
2018-11-10T03:08:24.028Z,10.13
2018-11-10T03:10:52.288Z,9.97
2018-11-10T03:13:20.424Z,9.67
2018-11-10T03:15:48.600Z,9.60
2018-11-10T03:18:16.801Z,9.63
2018-11-10T03:20:45.080Z,9.60
2018-11-10T03:23:13.368Z,8.73
2018-11-10T03:25:41.530Z,8.60
2018-11-10T03:28:09.675Z,8.50
2018-11-10T03:30:37.854Z,9.00
2018-11-10T03:33:06.360Z,8.83
2018-11-10T03:35:34.526Z,9.70
2018-11-10T03:38:02.684Z,9.10
2018-11-10T03:40:30.861Z,8.53
2018-11-10T03:42:59.059Z,7.80
2018-11-10T03:45:27.271Z,9.30
2018-11-10T03:47:55.559Z,8.43
2018-11-10T03:50:23.733Z,7.30
2018-11-10T03:52:51.920Z,7.80
2018-11-10T03:55:20.148Z,7.33
2018-11-10T03:57:48.349Z,7.87
2018-11-10T04:00:16.558Z,8.43
2018-11-10T04:02:45.741Z,7.87
2018-11-10T04:05:14.472Z,8.27
2018-11-10T04:07:43.827Z,8.10
2018-11-10T04:10:12.609Z,8.10
2018-11-10T04:12:41.607Z,8.97
2018-11-10T04:15:09.894Z,8.33
2018-11-10T04:17:38.352Z,7.27
2018-11-10T04:20:07.913Z,7.77
2018-11-10T04:22:37.085Z,7.63
2018-11-10T04:25:07.846Z,7.97
2018-11-10T04:27:35.971Z,9.00
2018-11-10T04:30:05.287Z,7.30
2018-11-10T04:32:34.054Z,7.90
2018-11-10T04:35:02.372Z,8.13
2018-11-10T04:37:30.581Z,8.57
2018-11-10T04:39:58.847Z,8.43
2018-11-10T04:42:27.033Z,9.70
2018-11-10T04:44:55.203Z,9.47
2018-11-10T04:47:23.385Z,8.63
2018-11-10T04:49:51.688Z,9.03
2018-11-10T04:52:19.829Z,9.87
2018-11-10T04:54:48.106Z,10.70
2018-11-10T04:57:16.517Z,9.50
2018-11-10T04:59:44.789Z,9.90
2018-11-10T05:02:13.021Z,8.57
2018-11-10T05:04:41.808Z,8.67
2018-11-10T05:07:10.052Z,8.93
2018-11-10T05:09:38.381Z,9.07
2018-11-10T05:12:06.642Z,9.77
2018-11-10T05:14:34.858Z,11.10
2018-11-10T05:17:03.021Z,10.17
2018-11-10T05:19:31.191Z,8.87
2018-11-10T05:21:59.473Z,9.40
2018-11-10T05:24:27.780Z,8.30
2018-11-10T05:26:55.982Z,8.77
2018-11-10T05:29:24.199Z,9.30
2018-11-10T05:31:52.384Z,9.30
2018-11-10T05:34:20.696Z,9.37
2018-11-10T05:36:49.008Z,7.87
2018-11-10T05:39:17.204Z,8.50
2018-11-10T05:41:45.381Z,7.77
2018-11-10T05:44:13.603Z,9.10
2018-11-10T05:46:41.792Z,9.57
2018-11-10T05:49:09.963Z,9.67
2018-11-10T05:51:38.253Z,8.50
2018-11-10T05:54:06.677Z,10.40
2018-11-10T05:56:34.828Z,11.53
2018-11-10T05:59:03.077Z,11.07
2018-11-10T06:01:31.565Z,11.23
2018-11-10T06:03:59.752Z,9.23
2018-11-10T06:06:27.941Z,11.80
2018-11-10T06:08:56.304Z,10.83
2018-11-10T06:11:24.570Z,12.00
2018-11-10T06:13:52.718Z,11.53
2018-11-10T06:16:20.857Z,12.17
2018-11-10T06:18:49.352Z,12.27
2018-11-10T06:21:17.485Z,11.90
2018-11-10T06:23:45.742Z,12.90
2018-11-10T06:26:14.099Z,16.00
2018-11-10T06:28:42.164Z,13.30
2018-11-10T06:31:10.368Z,11.13
2018-11-10T06:33:38.977Z,12.83
2018-11-10T06:36:07.787Z,14.83
2018-11-10T06:38:35.959Z,14.13
2018-11-10T06:41:04.196Z,13.00
2018-11-10T06:43:32.386Z,11.90
2018-11-10T06:46:00.605Z,12.93
2018-11-10T06:48:28.850Z,12.30
2018-11-10T06:50:57.005Z,12.87
2018-11-10T06:53:25.192Z,13.37
2018-11-10T06:55:53.448Z,12.57
2018-11-10T06:58:21.720Z,13.87
2018-11-10T07:00:49.931Z,13.77
2018-11-10T07:03:18.243Z,16.13
2018-11-10T07:05:47.953Z,14.50
2018-11-10T07:08:16.141Z,14.50
2018-11-10T07:10:44.381Z,14.57
2018-11-10T07:13:12.807Z,13.90
2018-11-10T07:15:40.993Z,14.80
2018-11-10T07:18:09.270Z,14.33
2018-11-10T07:20:37.424Z,11.93
2018-11-10T07:23:05.787Z,11.13
2018-11-10T07:25:33.979Z,12.20
2018-11-10T07:28:02.171Z,12.60
2018-11-10T07:30:30.323Z,11.60
2018-11-10T07:32:58.488Z,12.90
2018-11-10T07:35:26.776Z,12.37
2018-11-10T07:37:54.952Z,12.07
2018-11-10T07:40:23.109Z,16.50
2018-11-10T07:42:51.543Z,12.47
2018-11-10T07:45:20.584Z,13.20
2018-11-10T07:47:48.785Z,13.10
2018-11-10T07:50:17.400Z,11.43
2018-11-10T07:52:45.855Z,12.13
2018-11-10T07:55:15.094Z,11.73
2018-11-10T07:57:43.372Z,14.20
2018-11-10T08:00:13.722Z,11.30
2018-11-10T08:02:42.130Z,10.40
2018-11-10T08:05:11.244Z,10.10
2018-11-10T08:07:40.284Z,10.23
2018-11-10T08:10:08.809Z,10.07
2018-11-10T08:12:37.785Z,8.40
2018-11-10T08:15:12.052Z,7.77
2018-11-10T08:17:40.745Z,7.87
2018-11-10T08:20:09.833Z,7.07
2018-11-10T08:22:38.117Z,7.73
2018-11-10T08:25:07.999Z,7.90
2018-11-10T08:27:36.052Z,7.30
2018-11-10T08:30:05.029Z,4.93
2018-11-10T08:32:33.572Z,3.63
2018-11-10T08:35:01.764Z,3.57
2018-11-10T08:37:31.316Z,3.23
2018-11-10T08:39:59.534Z,2.50
2018-11-10T08:42:27.976Z,2.57
2018-11-10T08:44:56.159Z,1.83
2018-11-10T08:47:24.400Z,1.73
2018-11-10T08:49:53.537Z,1.20
2018-11-10T08:52:22.090Z,1.63
2018-11-10T08:54:50.244Z,1.30
2018-11-10T08:57:19.452Z,1.37
2018-11-10T08:59:47.792Z,1.27
2018-11-10T09:02:15.946Z,1.40
2018-11-10T09:04:44.097Z,1.27
2018-11-10T09:07:12.663Z,2.20
2018-11-10T09:09:40.998Z,1.70
2018-11-10T09:12:09.958Z,1.33
2018-11-10T09:14:39.546Z,1.90
2018-11-10T09:17:07.827Z,3.43
2018-11-10T09:19:36.016Z,1.60
2018-11-10T09:22:05.242Z,2.37
2018-11-10T09:24:33.521Z,1.60
2018-11-10T09:27:02.130Z,1.40
2018-11-10T09:29:30.431Z,1.10
2018-11-10T09:31:59.211Z,1.43
2018-11-10T09:34:27.814Z,1.23
2018-11-10T09:36:56.318Z,1.63
2018-11-10T09:39:24.755Z,5.37
2018-11-10T09:41:52.972Z,1.10
2018-11-10T09:44:21.681Z,4.50
2018-11-10T09:46:50.627Z,3.40
2018-11-10T09:49:19.768Z,1.47
2018-11-10T09:51:48.029Z,1.33
2018-11-10T09:54:16.468Z,1.40
2018-11-10T09:56:44.621Z,1.20
2018-11-10T09:59:12.801Z,1.90
2018-11-10T10:01:42.381Z,1.80
2018-11-10T10:04:10.320Z,1.47
2018-11-10T10:06:38.549Z,1.70
2018-11-10T10:09:08.692Z,1.17
2018-11-10T10:11:37.346Z,1.37
2018-11-10T10:14:05.737Z,1.70
2018-11-10T10:16:34.151Z,1.50
2018-11-10T10:19:02.320Z,1.63
2018-11-10T10:21:30.505Z,3.07
2018-11-10T10:23:58.945Z,1.50
2018-11-10T10:26:27.189Z,2.50
2018-11-10T10:28:55.558Z,1.70
2018-11-10T10:31:23.811Z,1.77
2018-11-10T10:33:52.028Z,2.23
2018-11-10T10:36:20.204Z,2.83
2018-11-10T10:38:50.018Z,4.17
2018-11-10T10:41:18.309Z,2.40
2018-11-10T10:43:46.496Z,2.63
2018-11-10T10:46:14.880Z,2.30
2018-11-10T10:48:43.359Z,4.17
2018-11-10T10:51:11.525Z,2.33
2018-11-10T10:53:40.116Z,4.60
2018-11-10T10:56:09.217Z,3.47
2018-11-10T10:58:37.384Z,4.00
2018-11-10T11:01:11.303Z,4.30
2018-11-10T11:03:45.056Z,4.60
2018-11-10T11:06:14.177Z,3.83
2018-11-10T11:08:42.382Z,4.27
2018-11-10T11:11:10.592Z,4.93
2018-11-10T11:13:39.053Z,5.03
2018-11-10T11:16:07.644Z,5.30
2018-11-10T11:18:35.949Z,5.27
2018-11-10T11:21:04.819Z,5.23
2018-11-10T11:23:33.015Z,4.10
2018-11-10T11:26:01.295Z,5.10
2018-11-10T11:28:30.349Z,5.60
2018-11-10T11:30:58.651Z,6.50
2018-11-10T11:33:26.803Z,5.83
2018-11-10T11:35:55.256Z,5.80
2018-11-10T11:38:23.554Z,8.20
2018-11-10T11:40:51.900Z,5.30
2018-11-10T11:43:20.378Z,5.60
2018-11-10T11:45:48.579Z,6.43
2018-11-10T11:48:16.845Z,6.60
2018-11-10T11:50:45.352Z,6.63
2018-11-10T11:53:13.848Z,9.23
2018-11-10T11:55:42.089Z,8.20
2018-11-10T11:58:10.934Z,8.90
2018-11-10T12:00:38.968Z,7.77
2018-11-10T12:03:07.445Z,7.87
2018-11-10T12:05:35.765Z,9.17
2018-11-10T12:08:04.101Z,12.13
2018-11-10T12:10:32.288Z,10.47
2018-11-10T12:13:00.941Z,12.07
2018-11-10T12:15:29.287Z,10.43
2018-11-10T12:17:57.546Z,10.23
2018-11-10T12:20:27.201Z,11.47
2018-11-10T12:22:55.948Z,14.87
2018-11-10T12:25:24.228Z,10.33
2018-11-10T12:27:52.429Z,10.37
2018-11-10T12:30:21.284Z,10.37
2018-11-10T12:32:49.528Z,12.00
2018-11-10T12:35:17.768Z,12.17
2018-11-10T12:37:47.308Z,10.77
2018-11-10T12:40:16.286Z,10.93
2018-11-10T12:42:44.461Z,10.10
2018-11-10T12:45:13.776Z,9.80
2018-11-10T12:47:42.965Z,11.20
2018-11-10T12:50:12.766Z,10.67
2018-11-10T12:52:43.327Z,9.73
2018-11-10T12:55:13.283Z,12.30
2018-11-10T12:57:42.635Z,8.20
2018-11-10T13:00:12.852Z,7.30
2018-11-10T13:02:41.674Z,7.73
2018-11-10T13:05:10.949Z,4.60
2018-11-10T13:07:39.732Z,5.50
2018-11-10T13:10:08.827Z,4.93
2018-11-10T13:12:37.436Z,5.13
2018-11-10T13:15:06.966Z,3.93
2018-11-10T13:17:35.508Z,4.73
2018-11-10T13:20:04.337Z,4.40
2018-11-10T13:22:32.869Z,4.80
2018-11-10T13:25:01.335Z,5.33
2018-11-10T13:27:29.738Z,4.90
2018-11-10T13:29:58.995Z,4.90
2018-11-10T13:32:28.063Z,5.10
2018-11-10T13:34:57.104Z,4.97
2018-11-10T13:37:25.910Z,6.00
2018-11-10T13:39:55.004Z,5.20
2018-11-10T13:42:23.674Z,4.90
2018-11-10T13:44:52.106Z,4.73
2018-11-10T13:47:20.634Z,4.17
2018-11-10T13:49:49.016Z,5.53
2018-11-10T13:52:18.405Z,5.00
2018-11-10T13:54:46.321Z,4.63
2018-11-10T13:57:14.661Z,5.40
2018-11-10T13:59:42.916Z,5.33
2018-11-10T14:02:11.121Z,3.90
2018-11-10T14:04:39.354Z,4.03
2018-11-10T14:07:07.639Z,4.83
2018-11-10T14:09:35.827Z,4.70
2018-11-10T14:12:04.015Z,4.60
2018-11-10T14:14:32.229Z,3.93
2018-11-10T14:17:00.448Z,4.20
2018-11-10T14:19:28.861Z,4.07
2018-11-10T14:21:57.116Z,4.03
2018-11-10T14:24:25.337Z,4.60
2018-11-10T14:26:53.560Z,4.50
2018-11-10T14:29:21.783Z,3.47
2018-11-10T14:31:49.995Z,3.80
2018-11-10T14:34:19.760Z,3.60
2018-11-10T14:36:48.114Z,2.17
2018-11-10T14:39:16.278Z,2.97
2018-11-10T14:41:44.501Z,3.23
2018-11-10T14:44:12.843Z,3.00
2018-11-10T14:46:41.057Z,3.20
2018-11-10T14:49:09.286Z,2.13
2018-11-10T14:51:37.540Z,2.00
2018-11-10T14:54:06.657Z,2.00
2018-11-10T14:56:35.142Z,2.60
2018-11-10T14:59:04.194Z,1.20
2018-11-10T15:01:32.850Z,1.30
2018-11-10T15:04:01.319Z,1.57
2018-11-10T15:06:29.896Z,1.23
2018-11-10T15:08:58.344Z,1.00
2018-11-10T15:11:26.632Z,0.90
2018-11-10T15:13:55.052Z,2.10
2018-11-10T15:16:23.265Z,1.13
2018-11-10T15:18:51.580Z,1.23
2018-11-10T15:21:20.096Z,1.10
2018-11-10T15:23:48.281Z,0.70
2018-11-10T15:26:16.460Z,1.20
2018-11-10T15:28:44.743Z,1.40
2018-11-10T15:31:13.086Z,1.03
2018-11-10T15:33:41.964Z,1.13
2018-11-10T15:36:10.542Z,1.50
2018-11-10T15:38:38.795Z,0.93
2018-11-10T15:41:07.852Z,0.90
2018-11-10T15:43:36.117Z,1.00
2018-11-10T15:46:04.560Z,0.83
2018-11-10T15:48:32.749Z,1.23
2018-11-10T15:51:00.956Z,1.43
2018-11-10T15:53:29.144Z,0.80
2018-11-10T15:55:57.786Z,1.40
2018-11-10T15:58:25.956Z,1.10
2018-11-10T16:00:54.256Z,0.80
2018-11-10T16:03:22.456Z,1.90
2018-11-10T16:05:50.712Z,1.03
2018-11-10T16:08:18.973Z,1.30
2018-11-10T16:10:47.129Z,1.30
2018-11-10T16:13:15.302Z,1.10
2018-11-10T16:15:43.503Z,1.20
2018-11-10T16:18:11.739Z,1.37
2018-11-10T16:20:40.013Z,1.33
2018-11-10T16:23:09.001Z,1.30
2018-11-10T16:25:37.161Z,1.40
2018-11-10T16:28:05.603Z,1.30
2018-11-10T16:30:33.797Z,1.00
2018-11-10T16:33:02.051Z,1.50
2018-11-10T16:35:30.212Z,1.43
2018-11-10T16:37:58.342Z,1.20
2018-11-10T16:40:26.561Z,1.10
2018-11-10T16:42:54.843Z,2.10
2018-11-10T16:45:23.121Z,1.20
2018-11-10T16:47:53.177Z,1.50
2018-11-10T16:50:21.362Z,1.50
2018-11-10T16:52:49.606Z,1.87
2018-11-10T16:55:18.272Z,1.77
2018-11-10T16:57:46.292Z,1.63
2018-11-10T17:00:17.809Z,1.50
2018-11-10T17:02:46.246Z,4.23
2018-11-10T17:05:14.707Z,3.43
2018-11-10T17:07:42.885Z,2.33
2018-11-10T17:10:13.570Z,1.80
2018-11-10T17:12:43.125Z,2.43
2018-11-10T17:15:11.475Z,2.07
2018-11-10T17:17:39.704Z,1.93
2018-11-10T17:20:09.926Z,2.43
2018-11-10T17:22:38.463Z,2.30
2018-11-10T17:25:06.934Z,1.90
2018-11-10T17:27:35.253Z,1.90
2018-11-10T17:30:03.621Z,2.50
2018-11-10T17:32:31.892Z,2.47
2018-11-10T17:35:01.399Z,2.80
2018-11-10T17:37:29.640Z,2.40
2018-11-10T17:39:58.028Z,1.77
2018-11-10T17:42:26.125Z,2.00
2018-11-10T17:44:54.291Z,1.45
2018-11-10T17:47:22.583Z,2.07
2018-11-10T17:49:51.295Z,1.90
2018-11-10T17:52:20.022Z,1.53
2018-11-10T17:54:48.337Z,2.00
2018-11-10T17:57:16.512Z,2.20
2018-11-10T17:59:44.662Z,1.77
2018-11-10T18:02:12.913Z,1.90
2018-11-10T18:04:41.155Z,2.30
2018-11-10T18:07:09.343Z,1.47
2018-11-10T18:09:37.541Z,1.47
2018-11-10T18:12:06.599Z,1.27
2018-11-10T18:14:35.109Z,2.70
2018-11-10T18:17:03.332Z,1.60
2018-11-10T18:19:31.565Z,1.33
2018-11-10T18:21:59.788Z,1.60
2018-11-10T18:24:28.905Z,1.43
2018-11-10T18:26:57.080Z,2.53
2018-11-10T18:29:25.284Z,2.10
2018-11-10T18:31:53.482Z,2.07
2018-11-10T18:34:21.692Z,5.33
2018-11-10T18:36:50.264Z,2.85
2018-11-10T18:39:18.475Z,3.03
2018-11-10T18:41:46.705Z,4.93
2018-11-10T18:44:15.001Z,12.80
2018-11-10T18:46:43.254Z,3.30
2018-11-10T18:49:11.374Z,2.77
2018-11-10T18:51:39.665Z,3.70
2018-11-10T18:54:07.869Z,3.87
2018-11-10T18:56:36.065Z,12.30
2018-11-10T18:59:04.289Z,3.63
2018-11-10T19:01:32.569Z,5.20
2018-11-10T19:04:01.228Z,4.27
2018-11-10T19:06:29.580Z,5.63
2018-11-10T19:08:57.844Z,5.20
2018-11-10T19:11:26.096Z,5.00
2018-11-10T19:13:54.425Z,5.73
2018-11-10T19:16:22.734Z,5.03
2018-11-10T19:18:51.114Z,5.13
2018-11-10T19:21:19.544Z,6.30
2018-11-10T19:23:47.812Z,5.70
2018-11-10T19:26:16.108Z,6.43
2018-11-10T19:28:44.366Z,4.83
2018-11-10T19:31:12.521Z,5.40
2018-11-10T19:33:40.878Z,5.57
2018-11-10T19:36:09.110Z,4.80
2018-11-10T19:38:37.285Z,4.20
2018-11-10T19:41:05.581Z,5.43
2018-11-10T19:43:33.766Z,4.97
2018-11-10T19:46:02.050Z,4.63
2018-11-10T19:48:30.288Z,4.43
2018-11-10T19:50:58.731Z,4.17
2018-11-10T19:53:26.773Z,5.80
2018-11-10T19:55:55.000Z,5.07
2018-11-10T19:58:23.206Z,4.70
2018-11-10T20:00:51.489Z,4.87
2018-11-10T20:03:19.721Z,6.30
2018-11-10T20:05:47.958Z,4.97
2018-11-10T20:08:16.284Z,6.13
2018-11-10T20:10:44.546Z,5.13
2018-11-10T20:13:12.705Z,4.87
2018-11-10T20:15:41.356Z,5.13
2018-11-10T20:18:09.510Z,15.83
2018-11-10T20:20:37.690Z,6.70
2018-11-10T20:23:06.220Z,6.33
2018-11-10T20:25:34.452Z,5.77
2018-11-10T20:28:02.668Z,6.43
2018-11-10T20:30:30.864Z,6.00
2018-11-10T20:32:59.262Z,6.13
2018-11-10T20:35:27.309Z,6.90
2018-11-10T20:37:56.091Z,6.63
2018-11-10T20:40:24.300Z,6.43
2018-11-10T20:42:52.845Z,8.00
2018-11-10T20:45:21.822Z,7.97
2018-11-10T20:47:50.128Z,7.70
2018-11-10T20:50:18.882Z,7.67
2018-11-10T20:52:47.070Z,6.50
2018-11-10T20:55:17.195Z,7.40
2018-11-10T20:57:46.072Z,8.93
2018-11-10T21:00:17.006Z,8.23
2018-11-10T21:02:45.469Z,7.00
2018-11-10T21:05:14.199Z,6.50
2018-11-10T21:07:42.399Z,7.23
2018-11-10T21:10:14.409Z,6.40
2018-11-10T21:12:44.386Z,8.47
2018-11-10T21:15:13.119Z,8.13
2018-11-10T21:17:41.544Z,6.80
2018-11-10T21:20:10.881Z,6.40
2018-11-10T21:22:38.984Z,5.77
2018-11-10T21:25:08.662Z,4.27
2018-11-10T21:27:37.382Z,5.53
2018-11-10T21:30:06.777Z,5.10
2018-11-10T21:32:35.159Z,6.00
2018-11-10T21:35:03.338Z,6.10
2018-11-10T21:37:31.482Z,6.43
2018-11-10T21:39:59.874Z,5.40
2018-11-10T21:42:28.071Z,5.40
2018-11-10T21:44:56.557Z,4.77
2018-11-10T21:47:25.048Z,5.40
2018-11-10T21:49:54.746Z,4.47
2018-11-10T21:52:22.873Z,4.20
2018-11-10T21:54:51.062Z,3.70
2018-11-10T21:57:20.278Z,3.03
2018-11-10T21:59:48.682Z,2.93
2018-11-10T22:02:17.121Z,1.90
2018-11-10T22:04:45.239Z,2.20
2018-11-10T22:07:13.393Z,2.07
2018-11-10T22:09:43.302Z,2.57
2018-11-10T22:12:11.816Z,2.60
2018-11-10T22:14:40.549Z,3.17
2018-11-10T22:17:08.832Z,2.43
2018-11-10T22:19:37.805Z,2.50
2018-11-10T22:22:06.075Z,2.80
2018-11-10T22:24:34.317Z,2.57
2018-11-10T22:27:02.760Z,2.50
2018-11-10T22:29:31.128Z,2.57
2018-11-10T22:31:59.413Z,2.50
2018-11-10T22:34:29.767Z,2.70
2018-11-10T22:36:58.240Z,3.13
2018-11-10T22:39:26.524Z,2.60
2018-11-10T22:41:54.839Z,2.80
2018-11-10T22:44:23.422Z,3.80
2018-11-10T22:46:53.658Z,3.10
2018-11-10T22:49:21.864Z,2.97
2018-11-10T22:51:51.590Z,2.97
2018-11-10T22:54:19.956Z,3.10
2018-11-10T22:56:48.164Z,2.57
2018-11-10T22:59:16.392Z,2.13
2018-11-10T23:01:44.562Z,2.57
2018-11-10T23:04:12.976Z,2.50
2018-11-10T23:06:41.166Z,2.73
2018-11-10T23:09:09.689Z,2.17
2018-11-10T23:11:38.096Z,2.03
2018-11-10T23:14:06.246Z,1.13
2018-11-10T23:16:34.417Z,1.73
2018-11-10T23:19:02.614Z,1.83
2018-11-10T23:21:30.795Z,1.37
2018-11-10T23:23:59.216Z,1.67
2018-11-10T23:26:27.435Z,1.57
2018-11-10T23:28:55.692Z,1.50
2018-11-10T23:31:23.830Z,1.47
2018-11-10T23:33:52.057Z,1.83
2018-11-10T23:36:20.240Z,1.60
2018-11-10T23:38:48.467Z,2.37
2018-11-10T23:41:16.616Z,2.17
2018-11-10T23:43:44.794Z,2.33
2018-11-10T23:46:13.182Z,2.50
2018-11-10T23:48:41.499Z,2.50
2018-11-10T23:51:09.669Z,2.60
2018-11-10T23:53:37.896Z,2.40
2018-11-10T23:56:06.081Z,1.80
2018-11-10T23:58:34.350Z,2.60
